createdAt,value
2018-08-16T00:00:11.432Z,85.00
2018-08-16T00:02:39.782Z,84.30
2018-08-16T00:05:08.397Z,84.30
2018-08-16T00:07:36.834Z,84.30
2018-08-16T00:10:08.391Z,84.00
2018-08-16T00:12:36.780Z,84.40
2018-08-16T00:15:05.677Z,84.30
2018-08-16T00:17:34.076Z,84.40
2018-08-16T00:20:02.470Z,84.70
2018-08-16T00:22:30.858Z,84.90
2018-08-16T00:24:59.271Z,84.90
2018-08-16T00:27:27.683Z,84.80
2018-08-16T00:29:56.120Z,85.90
2018-08-16T00:32:24.984Z,85.60
2018-08-16T00:34:53.467Z,86.10
2018-08-16T00:37:21.949Z,85.30
2018-08-16T00:39:50.516Z,85.70
2018-08-16T00:42:19.101Z,86.80
2018-08-16T00:44:47.615Z,86.50
2018-08-16T00:47:16.075Z,86.40
2018-08-16T00:49:44.513Z,86.30
2018-08-16T00:52:12.886Z,86.50
2018-08-16T00:54:41.315Z,86.80
2018-08-16T00:57:09.659Z,86.90
2018-08-16T00:59:38.264Z,87.00
2018-08-16T01:02:06.888Z,86.60
2018-08-16T01:04:35.535Z,86.90
2018-08-16T01:07:03.956Z,86.80
2018-08-16T01:09:32.391Z,87.00
2018-08-16T01:12:01.672Z,88.20
2018-08-16T01:14:30.203Z,87.50
2018-08-16T01:16:58.615Z,88.00
2018-08-16T01:19:27.046Z,88.20
2018-08-16T01:21:55.429Z,88.40
2018-08-16T01:24:23.899Z,88.50
2018-08-16T01:26:52.483Z,88.80
2018-08-16T01:29:20.894Z,88.80
2018-08-16T01:31:49.490Z,88.60
2018-08-16T01:34:18.063Z,88.50
2018-08-16T01:36:46.800Z,88.60
2018-08-16T01:39:15.435Z,88.20
2018-08-16T01:41:43.837Z,88.50
2018-08-16T01:44:12.206Z,88.40
2018-08-16T01:46:40.627Z,88.80
2018-08-16T01:49:23.424Z,88.80
2018-08-16T01:51:51.933Z,89.40
2018-08-16T01:54:20.322Z,89.90
2018-08-16T01:56:48.686Z,89.80
2018-08-16T01:59:17.130Z,89.60
2018-08-16T02:01:45.650Z,89.40
2018-08-16T02:04:14.038Z,89.10
2018-08-16T02:06:42.522Z,89.20
2018-08-16T02:09:11.020Z,88.90
2018-08-16T02:11:39.629Z,89.20
2018-08-16T02:14:08.490Z,89.40
2018-08-16T02:16:53.696Z,89.60
2018-08-16T02:19:22.811Z,90.00
2018-08-16T02:21:52.051Z,89.90
2018-08-16T02:24:21.509Z,89.90
2018-08-16T02:26:50.765Z,89.60
2018-08-16T02:29:20.116Z,89.80
2018-08-16T02:31:49.434Z,89.90
2018-08-16T02:34:17.815Z,89.70
2018-08-16T02:36:46.193Z,89.80
2018-08-16T02:39:14.798Z,89.60
2018-08-16T02:41:43.234Z,89.60
2018-08-16T02:44:11.863Z,90.10
2018-08-16T02:46:40.340Z,90.20
2018-08-16T02:49:08.695Z,90.10
2018-08-16T02:51:37.210Z,90.10
2018-08-16T02:54:05.624Z,90.10
2018-08-16T02:56:34.005Z,90.20
2018-08-16T02:59:02.452Z,90.20
2018-08-16T03:01:30.866Z,90.30
2018-08-16T03:03:59.246Z,90.00
2018-08-16T03:06:27.703Z,89.90
2018-08-16T03:08:56.195Z,90.30
2018-08-16T03:11:24.591Z,90.00
2018-08-16T03:13:52.958Z,90.10
2018-08-16T03:16:21.334Z,90.00
2018-08-16T03:18:49.989Z,90.00
2018-08-16T03:21:18.405Z,89.70
2018-08-16T03:23:46.826Z,89.40
2018-08-16T03:26:15.228Z,90.10
2018-08-16T03:28:43.612Z,90.00
2018-08-16T03:31:12.013Z,89.90
2018-08-16T03:33:40.397Z,89.40
2018-08-16T03:36:08.811Z,89.40
2018-08-16T03:38:37.188Z,89.40
2018-08-16T03:41:05.709Z,88.90
2018-08-16T03:43:34.097Z,89.00
2018-08-16T03:46:02.608Z,88.90
2018-08-16T03:48:31.256Z,89.20
2018-08-16T03:50:59.643Z,89.00
2018-08-16T03:53:28.099Z,88.80
2018-08-16T03:55:56.492Z,88.50
2018-08-16T03:58:24.972Z,88.20
2018-08-16T04:00:53.426Z,88.40
2018-08-16T04:03:21.804Z,88.60
2018-08-16T04:05:50.177Z,88.60
2018-08-16T04:08:18.596Z,88.70
2018-08-16T04:10:47.202Z,88.70
2018-08-16T04:13:15.975Z,88.30
2018-08-16T04:15:44.451Z,88.00
2018-08-16T04:18:13.033Z,88.20
2018-08-16T04:20:41.462Z,88.70
2018-08-16T04:23:09.916Z,88.40
2018-08-16T04:25:38.258Z,88.10
2018-08-16T04:28:06.691Z,88.20
2018-08-16T04:30:35.165Z,88.40
2018-08-16T04:33:03.621Z,87.90
2018-08-16T04:35:32.047Z,88.20
2018-08-16T04:38:00.531Z,88.10
2018-08-16T04:40:29.000Z,88.40
2018-08-16T04:42:57.402Z,88.40
2018-08-16T04:45:25.835Z,87.90
2018-08-16T04:47:54.403Z,87.20
2018-08-16T04:50:22.826Z,87.00
2018-08-16T04:52:51.257Z,87.00
2018-08-16T04:55:21.059Z,86.80
2018-08-16T04:57:49.482Z,86.80
2018-08-16T05:00:17.849Z,86.80
2018-08-16T05:02:46.227Z,86.90
2018-08-16T05:05:14.655Z,86.90
2018-08-16T05:07:46.763Z,86.70
2018-08-16T05:10:15.265Z,86.20
2018-08-16T05:12:43.723Z,85.80
2018-08-16T05:15:13.278Z,85.70
2018-08-16T05:17:41.923Z,85.70
2018-08-16T05:20:12.890Z,85.80
2018-08-16T05:22:42.085Z,85.10
2018-08-16T05:25:10.475Z,86.00
2018-08-16T05:27:38.984Z,86.10
2018-08-16T05:30:09.736Z,85.90
2018-08-16T05:32:38.078Z,84.80
2018-08-16T05:35:06.722Z,85.50
2018-08-16T05:37:35.738Z,85.60
2018-08-16T05:40:05.210Z,85.10
2018-08-16T05:42:33.592Z,84.30
2018-08-16T05:45:02.191Z,84.00
2018-08-16T05:47:30.662Z,83.70
2018-08-16T05:49:59.062Z,83.40
2018-08-16T05:52:27.430Z,83.00
2018-08-16T05:54:55.852Z,83.20
2018-08-16T05:57:24.478Z,83.00
2018-08-16T05:59:52.927Z,82.10
2018-08-16T06:02:21.374Z,82.00
2018-08-16T06:04:49.925Z,81.40
2018-08-16T06:07:18.319Z,81.60
2018-08-16T06:09:47.615Z,80.70
2018-08-16T06:12:16.013Z,80.30
2018-08-16T06:14:44.565Z,79.80
2018-08-16T06:17:12.955Z,80.20
2018-08-16T06:19:41.439Z,80.10
2018-08-16T06:22:09.830Z,80.00
2018-08-16T06:24:38.177Z,79.00
2018-08-16T06:27:07.491Z,78.80
2018-08-16T06:29:35.921Z,78.90
2018-08-16T06:32:04.633Z,78.20
2018-08-16T06:34:33.163Z,79.00
2018-08-16T06:37:01.576Z,78.10
2018-08-16T06:39:30.082Z,78.40
2018-08-16T06:41:58.753Z,77.60
2018-08-16T06:44:27.205Z,78.10
2018-08-16T06:46:55.716Z,78.10
2018-08-16T06:49:24.329Z,76.80
2018-08-16T06:51:53.394Z,76.20
2018-08-16T06:54:21.841Z,77.10
2018-08-16T06:56:50.292Z,78.20
2018-08-16T06:59:18.868Z,75.70
2018-08-16T07:01:47.385Z,77.10
2018-08-16T07:04:15.885Z,78.90
2018-08-16T07:06:44.286Z,73.90
2018-08-16T07:09:12.942Z,75.20
2018-08-16T07:11:42.302Z,74.60
2018-08-16T07:14:10.884Z,75.90
2018-08-16T07:16:39.307Z,75.10
2018-08-16T07:19:07.691Z,73.80
2018-08-16T07:21:36.313Z,74.20
2018-08-16T07:24:04.806Z,74.20
2018-08-16T07:26:33.300Z,74.80
2018-08-16T07:29:01.705Z,76.70
2018-08-16T07:31:30.357Z,73.70
2018-08-16T07:33:59.147Z,73.80
2018-08-16T07:36:27.542Z,73.60
2018-08-16T07:38:56.348Z,72.70
2018-08-16T07:41:25.431Z,73.70
2018-08-16T07:43:53.886Z,73.20
2018-08-16T07:46:22.426Z,71.70
2018-08-16T07:48:50.987Z,75.10
2018-08-16T07:51:19.593Z,73.60
2018-08-16T07:53:48.048Z,71.40
2018-08-16T07:56:16.498Z,71.80
2018-08-16T07:58:44.915Z,71.20
2018-08-16T08:01:13.569Z,70.40
2018-08-16T08:03:42.079Z,72.10
2018-08-16T08:06:10.559Z,71.30
2018-08-16T08:08:39.033Z,70.70
2018-08-16T08:11:07.516Z,69.80
2018-08-16T08:13:35.963Z,71.20
2018-08-16T08:16:04.363Z,70.20
2018-08-16T08:18:32.874Z,75.20
2018-08-16T08:21:01.328Z,68.40
2018-08-16T08:23:29.796Z,70.00
2018-08-16T08:25:58.297Z,71.50
2018-08-16T08:28:26.836Z,71.30
2018-08-16T08:30:55.453Z,70.00
2018-08-16T08:33:24.035Z,69.00
2018-08-16T08:36:04.022Z,69.60
2018-08-16T08:38:32.454Z,68.90
2018-08-16T08:41:00.905Z,68.30
2018-08-16T08:44:42.643Z,69.40
2018-08-16T08:47:11.100Z,69.80
2018-08-16T08:49:39.875Z,67.20
2018-08-16T08:52:08.428Z,68.50
2018-08-16T08:54:50.315Z,67.70
2018-08-16T08:57:30.475Z,67.30
2018-08-16T08:59:58.942Z,65.20
2018-08-16T09:02:27.374Z,65.70
2018-08-16T09:04:56.007Z,67.40
2018-08-16T09:07:24.921Z,65.60
2018-08-16T09:11:21.017Z,63.70
2018-08-16T09:14:02.419Z,64.40
2018-08-16T09:16:33.866Z,65.20
2018-08-16T09:19:02.756Z,64.90
2018-08-16T09:21:31.772Z,66.80
2018-08-16T09:24:00.270Z,65.80
2018-08-16T09:26:34.077Z,63.40
2018-08-16T09:29:02.617Z,62.30
2018-08-16T09:31:42.474Z,60.90
2018-08-16T09:34:19.932Z,62.30
2018-08-16T09:36:48.596Z,62.90
2018-08-16T09:39:17.556Z,64.40
2018-08-16T09:41:46.123Z,62.70
2018-08-16T09:44:14.584Z,66.60
2018-08-16T09:47:12.981Z,66.40
2018-08-16T09:49:48.363Z,64.20
2018-08-16T09:52:17.185Z,63.00
2018-08-16T09:54:45.633Z,65.40
2018-08-16T09:57:14.754Z,65.90
2018-08-16T09:59:43.495Z,64.50
2018-08-16T10:02:15.357Z,63.40
2018-08-16T10:04:43.733Z,62.70
2018-08-16T10:07:12.127Z,62.30
2018-08-16T10:09:40.516Z,62.70
2018-08-16T10:12:08.912Z,63.70
2018-08-16T10:14:37.311Z,63.30
2018-08-16T10:17:05.761Z,62.70
2018-08-16T10:19:34.134Z,61.70
2018-08-16T10:22:02.572Z,62.30
2018-08-16T10:24:30.925Z,60.70
2018-08-16T10:26:59.432Z,61.50
2018-08-16T10:29:27.845Z,61.60
2018-08-16T10:31:56.338Z,60.10
2018-08-16T10:34:24.784Z,58.70
2018-08-16T10:36:53.180Z,58.90
2018-08-16T10:39:21.623Z,58.60
2018-08-16T10:41:50.030Z,61.00
2018-08-16T10:44:18.756Z,60.40
2018-08-16T10:46:47.399Z,61.10
2018-08-16T10:49:15.975Z,61.80
2018-08-16T10:51:44.421Z,58.30
2018-08-16T10:54:12.906Z,59.00
2018-08-16T10:56:41.320Z,58.60
2018-08-16T10:59:09.759Z,58.40
2018-08-16T11:01:38.288Z,56.80
2018-08-16T11:04:06.672Z,56.90
2018-08-16T11:06:35.084Z,58.40
2018-08-16T11:09:05.184Z,60.40
2018-08-16T11:11:33.673Z,56.90
2018-08-16T11:14:02.071Z,57.30
2018-08-16T11:16:30.478Z,56.10
2018-08-16T11:18:59.176Z,59.20
2018-08-16T11:21:27.520Z,58.00
2018-08-16T11:23:55.905Z,59.00
2018-08-16T11:26:24.299Z,56.00
2018-08-16T11:28:52.787Z,55.70
2018-08-16T11:31:21.412Z,55.60
2018-08-16T11:33:49.820Z,55.20
2018-08-16T11:36:18.286Z,56.50
2018-08-16T11:38:46.669Z,56.40
2018-08-16T11:41:15.083Z,55.80
2018-08-16T11:43:43.505Z,58.60
2018-08-16T11:46:11.920Z,55.70
2018-08-16T11:48:40.314Z,57.90
2018-08-16T11:51:08.982Z,56.80
2018-08-16T11:53:37.386Z,57.20
2018-08-16T11:56:05.803Z,54.30
2018-08-16T11:58:34.313Z,53.80
2018-08-16T12:01:02.803Z,54.30
2018-08-16T12:03:31.362Z,54.10
2018-08-16T12:05:59.790Z,54.80
2018-08-16T12:08:28.199Z,56.30
2018-08-16T12:10:56.596Z,53.20
2018-08-16T12:13:25.281Z,55.50
2018-08-16T12:15:53.712Z,57.40
2018-08-16T12:18:22.191Z,55.40
2018-08-16T12:20:50.657Z,57.70
2018-08-16T12:23:19.035Z,56.20
2018-08-16T12:25:47.512Z,56.00
2018-08-16T12:28:15.869Z,56.00
2018-08-16T12:30:44.347Z,54.80
2018-08-16T12:33:12.817Z,56.30
2018-08-16T12:35:41.288Z,53.90
2018-08-16T12:38:12.368Z,53.60
2018-08-16T12:40:41.601Z,56.90
2018-08-16T12:43:11.362Z,55.50
2018-08-16T12:45:39.714Z,53.40
2018-08-16T12:48:08.887Z,55.30
2018-08-16T12:50:37.289Z,54.20
2018-08-16T12:53:05.901Z,54.40
2018-08-16T12:55:34.414Z,53.40
2018-08-16T12:58:02.844Z,55.70
2018-08-16T13:00:31.449Z,57.00
2018-08-16T13:02:59.871Z,55.00
2018-08-16T13:05:28.252Z,53.70
2018-08-16T13:07:56.770Z,54.70
2018-08-16T13:10:25.270Z,53.00
2018-08-16T13:12:53.817Z,55.30
2018-08-16T13:15:22.340Z,53.90
2018-08-16T13:17:50.754Z,55.40
2018-08-16T13:20:19.151Z,54.10
2018-08-16T13:22:47.563Z,53.90
2018-08-16T13:25:16.374Z,54.20
2018-08-16T13:27:44.984Z,54.30
2018-08-16T13:30:13.374Z,55.60
2018-08-16T13:32:41.770Z,53.00
2018-08-16T13:35:10.114Z,52.80
2018-08-16T13:37:38.493Z,52.80
2018-08-16T13:40:08.072Z,52.50
2018-08-16T13:42:36.508Z,54.10
2018-08-16T13:45:05.228Z,53.30
2018-08-16T13:47:33.646Z,52.20
2018-08-16T13:50:02.181Z,53.50
2018-08-16T13:52:30.563Z,56.80
2018-08-16T13:54:58.966Z,54.40
2018-08-16T13:57:27.342Z,53.00
2018-08-16T13:59:55.856Z,54.10
2018-08-16T14:02:24.247Z,54.50
2018-08-16T14:04:52.790Z,54.90
2018-08-16T14:07:21.213Z,53.90
2018-08-16T14:09:49.631Z,53.50
2018-08-16T14:12:17.978Z,53.50
2018-08-16T14:14:46.614Z,54.10
2018-08-16T14:17:15.063Z,52.80
2018-08-16T14:19:43.680Z,53.40
2018-08-16T14:22:12.162Z,53.70
2018-08-16T14:24:40.643Z,53.70
2018-08-16T14:27:09.051Z,54.80
2018-08-16T14:29:37.631Z,53.00
2018-08-16T14:32:06.310Z,52.80
2018-08-16T14:34:34.767Z,53.70
2018-08-16T14:37:03.746Z,54.70
2018-08-16T14:39:32.136Z,54.40
2018-08-16T14:42:00.703Z,53.20
2018-08-16T14:44:29.086Z,52.90
2018-08-16T14:46:57.528Z,53.50
2018-08-16T14:49:25.966Z,54.40
2018-08-16T14:51:54.511Z,52.80
2018-08-16T14:54:22.926Z,53.40
2018-08-16T14:56:51.525Z,53.80
2018-08-16T14:59:19.923Z,53.20
2018-08-16T15:01:48.382Z,52.70
2018-08-16T15:04:16.975Z,54.50
2018-08-16T15:06:45.363Z,53.30
2018-08-16T15:09:13.744Z,53.20
2018-08-16T15:11:42.211Z,53.20
2018-08-16T15:14:10.558Z,52.60
2018-08-16T15:16:39.071Z,51.90
2018-08-16T15:19:07.561Z,53.20
2018-08-16T15:21:36.079Z,52.40
2018-08-16T15:24:04.782Z,53.10
2018-08-16T15:26:33.138Z,54.10
2018-08-16T15:29:01.536Z,52.10
2018-08-16T15:31:29.975Z,52.00
2018-08-16T15:33:58.409Z,51.30
2018-08-16T15:36:26.794Z,52.30
2018-08-16T15:38:55.221Z,53.00
2018-08-16T15:41:23.647Z,52.40
2018-08-16T15:43:52.168Z,51.20
2018-08-16T15:48:55.470Z,51.70
2018-08-16T15:51:23.899Z,51.60
2018-08-16T15:53:52.313Z,51.30
2018-08-16T15:56:20.925Z,52.70
2018-08-16T15:58:49.411Z,51.20
2018-08-16T16:01:18.127Z,52.00
2018-08-16T16:03:46.599Z,52.90
2018-08-16T16:06:15.089Z,53.30
2018-08-16T16:08:43.500Z,51.90
2018-08-16T16:11:11.887Z,51.80
2018-08-16T16:13:40.595Z,51.70
2018-08-16T16:16:09.010Z,52.00
2018-08-16T16:18:37.450Z,50.90
2018-08-16T16:21:05.858Z,50.90
2018-08-16T16:23:34.242Z,50.50
2018-08-16T16:26:02.691Z,50.50
2018-08-16T16:28:31.210Z,51.90
2018-08-16T16:30:59.660Z,51.70
2018-08-16T16:33:28.242Z,52.60
2018-08-16T16:35:56.668Z,51.40
2018-08-16T16:38:25.189Z,51.30
2018-08-16T16:40:53.465Z,51.10
2018-08-16T16:43:21.855Z,51.10
2018-08-16T16:45:50.373Z,51.80
2018-08-16T16:48:18.830Z,51.50
2018-08-16T16:50:52.211Z,50.40
2018-08-16T16:53:20.595Z,51.20
2018-08-16T16:55:50.255Z,51.40
2018-08-16T16:58:18.659Z,50.50
2018-08-16T17:00:47.047Z,50.60
2018-08-16T17:03:15.513Z,50.10
2018-08-16T17:05:43.891Z,49.00
2018-08-16T17:08:12.503Z,50.30
2018-08-16T17:10:41.464Z,49.30
2018-08-16T17:13:09.895Z,49.50
2018-08-16T17:15:38.271Z,49.90
2018-08-16T17:18:06.737Z,49.90
2018-08-16T17:20:35.133Z,50.40
2018-08-16T17:23:04.037Z,50.80
2018-08-16T17:25:32.534Z,51.20
2018-08-16T17:28:01.087Z,51.50
2018-08-16T17:30:29.485Z,50.40
2018-08-16T17:32:57.915Z,50.30
2018-08-16T17:35:26.326Z,49.40
2018-08-16T17:37:54.753Z,50.20
2018-08-16T17:40:23.138Z,50.60
2018-08-16T17:42:51.469Z,50.30
2018-08-16T17:45:19.837Z,51.10
2018-08-16T17:47:48.426Z,50.00
2018-08-16T17:50:17.267Z,51.40
2018-08-16T17:52:45.694Z,50.70
2018-08-16T17:55:14.308Z,50.30
2018-08-16T17:57:42.759Z,52.40
2018-08-16T18:00:11.953Z,51.20
2018-08-16T18:02:42.848Z,51.00
2018-08-16T18:05:11.308Z,51.80
2018-08-16T18:07:39.731Z,52.20
2018-08-16T18:10:08.960Z,52.40
2018-08-16T18:12:37.363Z,52.60
2018-08-16T18:15:08.012Z,53.20
2018-08-16T18:17:36.456Z,53.60
2018-08-16T18:20:05.431Z,53.20
2018-08-16T18:22:34.037Z,53.30
2018-08-16T18:25:02.615Z,52.70
2018-08-16T18:27:31.002Z,54.50
2018-08-16T18:29:59.585Z,54.80
2018-08-16T18:32:28.064Z,55.50
2018-08-16T18:34:56.645Z,55.80
2018-08-16T18:37:25.259Z,56.70
2018-08-16T18:39:53.695Z,56.20
2018-08-16T18:42:22.118Z,57.40
2018-08-16T18:44:50.867Z,56.30
2018-08-16T18:47:19.528Z,56.20
2018-08-16T18:49:48.032Z,56.40
2018-08-16T18:52:16.807Z,57.30
2018-08-16T18:54:45.217Z,57.30
2018-08-16T18:57:13.754Z,57.30
2018-08-16T18:59:42.995Z,57.60
2018-08-16T19:02:11.434Z,56.90
2018-08-16T19:04:40.281Z,57.20
2018-08-16T19:07:08.846Z,57.30
2018-08-16T19:09:38.943Z,57.20
2018-08-16T19:12:07.643Z,56.90
2018-08-16T19:14:37.698Z,57.60
2018-08-16T19:17:06.106Z,58.40
2018-08-16T19:19:34.642Z,58.20
2018-08-16T19:22:03.287Z,59.80
2018-08-16T19:24:31.797Z,59.30
2018-08-16T19:27:06.880Z,58.40
2018-08-16T19:29:36.298Z,60.90
2018-08-16T19:32:05.231Z,64.50
2018-08-16T19:34:35.976Z,65.00
2018-08-16T19:37:04.601Z,65.10
2018-08-16T19:39:33.110Z,65.30
2018-08-16T19:42:02.268Z,67.20
2018-08-16T19:44:30.746Z,66.00
2018-08-16T19:46:59.324Z,66.00
2018-08-16T19:49:27.722Z,65.90
2018-08-16T19:51:56.452Z,65.70
2018-08-16T19:54:27.561Z,66.60
2018-08-16T19:57:01.826Z,65.10
2018-08-16T19:59:31.145Z,65.40
2018-08-16T20:02:00.428Z,66.00
2018-08-16T20:04:29.911Z,67.80
2018-08-16T20:06:59.103Z,68.50
2018-08-16T20:09:29.035Z,68.20
2018-08-16T20:11:58.502Z,67.20
2018-08-16T20:14:27.689Z,66.80
2018-08-16T20:16:56.955Z,68.40
2018-08-16T20:19:26.390Z,69.40
2018-08-16T20:21:55.701Z,70.30
2018-08-16T20:24:25.168Z,68.90
2018-08-16T20:26:54.233Z,68.70
2018-08-16T20:29:23.946Z,69.60
2018-08-16T20:31:53.426Z,70.60
2018-08-16T20:34:22.633Z,70.40
2018-08-16T20:36:52.048Z,67.20
2018-08-16T20:39:21.390Z,68.20
2018-08-16T20:41:50.632Z,69.80
2018-08-16T20:44:19.946Z,69.20
2018-08-16T20:46:49.332Z,70.40
2018-08-16T20:49:17.846Z,70.90
2018-08-16T20:51:46.366Z,71.30
2018-08-16T20:54:14.821Z,72.10
2018-08-16T20:56:43.253Z,72.70
2018-08-16T20:59:11.829Z,72.80
2018-08-16T21:01:40.238Z,72.30
2018-08-16T21:04:08.714Z,72.70
2018-08-16T21:06:37.545Z,71.10
2018-08-16T21:09:07.308Z,73.40
2018-08-16T21:11:36.045Z,72.70
2018-08-16T21:14:05.449Z,73.00
2018-08-16T21:16:33.924Z,73.70
2018-08-16T21:19:02.631Z,73.40
2018-08-16T21:21:31.066Z,72.50
2018-08-16T21:23:59.534Z,73.50
2018-08-16T21:26:27.963Z,74.00
2018-08-16T21:28:56.510Z,74.10
2018-08-16T21:31:25.030Z,73.90
2018-08-16T21:33:53.410Z,71.90
2018-08-16T21:36:21.816Z,72.50
2018-08-16T21:38:50.243Z,72.30
2018-08-16T21:41:18.642Z,70.80
2018-08-16T21:43:47.070Z,70.90
2018-08-16T21:46:15.533Z,68.20
2018-08-16T21:48:43.933Z,71.70
2018-08-16T21:51:12.309Z,69.20
2018-08-16T21:53:40.708Z,70.20
2018-08-16T21:56:09.082Z,71.80
2018-08-16T21:58:37.526Z,70.90
2018-08-16T22:01:07.114Z,69.50
2018-08-16T22:03:35.492Z,70.80
2018-08-16T22:06:10.689Z,70.60
2018-08-16T22:08:41.689Z,69.40
2018-08-16T22:11:10.301Z,69.80
2018-08-16T22:13:38.992Z,70.30
2018-08-16T22:16:07.419Z,71.80
2018-08-16T22:18:36.171Z,71.80
2018-08-16T22:21:04.693Z,71.50
2018-08-16T22:23:33.087Z,71.60
2018-08-16T22:26:01.506Z,71.30
2018-08-16T22:28:29.880Z,72.50
2018-08-16T22:30:58.726Z,72.40
2018-08-16T22:33:27.237Z,72.00
2018-08-16T22:35:55.647Z,72.90
2018-08-16T22:38:24.025Z,72.70
2018-08-16T22:40:52.426Z,72.00
2018-08-16T22:43:20.915Z,71.90
2018-08-16T22:45:49.298Z,72.00
2018-08-16T22:48:17.872Z,71.40
2018-08-16T22:50:46.317Z,71.00
2018-08-16T22:53:14.750Z,71.90
2018-08-16T22:55:43.159Z,72.40
2018-08-16T22:58:11.712Z,72.60
2018-08-16T23:00:40.297Z,73.10
2018-08-16T23:03:08.721Z,73.30
2018-08-16T23:05:37.099Z,73.20
2018-08-16T23:08:05.474Z,73.10
2018-08-16T23:10:33.817Z,73.60
2018-08-16T23:13:02.179Z,73.40
2018-08-16T23:15:30.553Z,73.70
2018-08-16T23:17:59.150Z,74.90
2018-08-16T23:20:27.541Z,74.30
2018-08-16T23:22:55.959Z,73.60
2018-08-16T23:25:24.412Z,74.60
2018-08-16T23:27:52.981Z,73.50
2018-08-16T23:30:21.370Z,73.70
2018-08-16T23:32:49.866Z,73.20
2018-08-16T23:35:18.433Z,73.90
2018-08-16T23:37:46.928Z,74.00
2018-08-16T23:40:15.334Z,73.80
2018-08-16T23:42:43.702Z,72.60
2018-08-16T23:45:12.395Z,73.20
2018-08-16T23:47:40.790Z,74.80
2018-08-16T23:50:11.397Z,74.60
2018-08-16T23:52:39.794Z,73.90
2018-08-16T23:55:09.082Z,71.70
2018-08-16T23:57:37.626Z,72.50
